createdAt,value
2018-04-12T00:01:47.301Z,25.77
2018-04-12T00:04:15.530Z,25.83
2018-04-12T00:06:43.013Z,25.63
2018-04-12T00:09:10.478Z,25.50
2018-04-12T00:11:37.983Z,27.97
2018-04-12T00:14:05.449Z,27.40
2018-04-12T00:16:32.932Z,26.90
2018-04-12T00:19:00.443Z,34.23
2018-04-12T00:21:27.932Z,35.33
2018-04-12T00:23:55.396Z,37.00
2018-04-12T00:26:22.865Z,35.60
2018-04-12T00:28:50.349Z,34.43
2018-04-12T00:31:17.927Z,33.67
2018-04-12T00:33:45.433Z,34.20
2018-04-12T00:36:12.941Z,31.87
2018-04-12T00:38:40.425Z,34.43
2018-04-12T00:41:07.897Z,30.53
2018-04-12T00:43:35.381Z,31.37
2018-04-12T00:46:03.608Z,28.63
2018-04-12T00:48:31.101Z,32.30
2018-04-12T00:50:59.349Z,38.77
2018-04-12T00:53:38.805Z,51.13
2018-04-12T00:56:06.282Z,50.37
2018-04-12T00:58:34.533Z,46.40
2018-04-12T01:01:02.008Z,63.60
2018-04-12T01:03:30.256Z,57.40
2018-04-12T01:05:57.737Z,54.53
2018-04-12T01:08:25.993Z,57.60
2018-04-12T01:10:53.464Z,47.90
2018-04-12T01:13:21.705Z,57.47
2018-04-12T01:15:49.193Z,49.63
2018-04-12T01:18:17.425Z,42.37
2018-04-12T01:20:44.909Z,39.23
2018-04-12T01:23:12.757Z,44.23
2018-04-12T01:25:40.249Z,44.50
2018-04-12T01:28:08.485Z,39.13
2018-04-12T01:30:35.969Z,36.03
2018-04-12T01:33:15.317Z,33.27
2018-04-12T01:35:43.571Z,35.83
2018-04-12T01:38:11.824Z,35.80
2018-04-12T01:40:39.306Z,40.03
2018-04-12T01:43:06.772Z,40.23
2018-04-12T01:45:35.025Z,32.77
2018-04-12T01:48:02.500Z,29.83
2018-04-12T01:50:30.760Z,30.13
2018-04-12T01:52:58.236Z,30.77
2018-04-12T01:55:26.485Z,27.50
2018-04-12T01:57:53.966Z,30.27
2018-04-12T02:00:22.208Z,24.23
2018-04-12T02:02:49.675Z,24.43
2018-04-12T02:05:17.157Z,21.37
2018-04-12T02:07:45.385Z,23.67
2018-04-12T02:10:12.872Z,21.43
2018-04-12T02:12:40.336Z,24.80
2018-04-12T02:15:08.573Z,27.67
2018-04-12T02:17:36.057Z,28.07
2018-04-12T02:20:04.292Z,28.70
2018-04-12T02:22:31.808Z,28.57
2018-04-12T02:25:00.025Z,26.57
2018-04-12T02:27:27.517Z,25.23
2018-04-12T02:29:54.984Z,26.80
2018-04-12T02:32:23.217Z,28.07
2018-04-12T02:34:50.703Z,28.43
2018-04-12T02:37:18.981Z,28.07
2018-04-12T02:39:47.252Z,28.70
2018-04-12T02:42:15.519Z,27.77
2018-04-12T02:44:42.985Z,28.20
2018-04-12T02:47:10.458Z,28.17
2018-04-12T02:49:37.941Z,28.83
2018-04-12T02:52:05.410Z,27.57
2018-04-12T02:54:33.564Z,26.70
2018-04-12T02:57:01.036Z,27.73
2018-04-12T02:59:28.521Z,27.47
2018-04-12T03:01:56.029Z,25.53
2018-04-12T03:04:23.521Z,25.53
2018-04-12T03:06:51.044Z,26.60
2018-04-12T03:09:18.524Z,26.20
2018-04-12T03:11:46.017Z,23.63
2018-04-12T03:14:14.277Z,25.57
2018-04-12T03:16:41.741Z,23.83
2018-04-12T03:19:09.225Z,25.70
2018-04-12T03:21:36.696Z,23.50
2018-04-12T03:24:04.188Z,25.53
2018-04-12T03:26:31.676Z,25.90
2018-04-12T03:28:59.904Z,26.33
2018-04-12T03:31:27.393Z,24.93
2018-04-12T03:33:54.857Z,24.17
2018-04-12T03:36:23.114Z,23.40
2018-04-12T03:38:50.592Z,22.60
2018-04-12T03:41:18.840Z,20.80
2018-04-12T03:43:46.316Z,26.03
2018-04-12T03:46:14.568Z,24.70
2018-04-12T03:48:42.076Z,25.00
2018-04-12T03:51:10.304Z,28.60
2018-04-12T03:53:37.769Z,29.23
2018-04-12T03:56:05.260Z,28.67
2018-04-12T03:58:32.830Z,26.17
2018-04-12T04:01:00.327Z,27.10
2018-04-12T04:03:27.797Z,26.37
2018-04-12T04:05:56.049Z,28.03
2018-04-12T04:08:23.520Z,29.43
2018-04-12T04:10:50.989Z,31.17
2018-04-12T04:13:19.245Z,31.57
2018-04-12T04:15:58.733Z,32.00
2018-04-12T04:18:38.029Z,31.70
2018-04-12T04:21:09.360Z,34.60
2018-04-12T04:23:36.852Z,41.00
2018-04-12T04:26:05.084Z,35.57
2018-04-12T04:28:32.590Z,42.63
2018-04-12T04:31:00.821Z,44.17
2018-04-12T04:33:28.308Z,44.57
2018-04-12T04:35:56.560Z,41.97
2018-04-12T04:38:24.045Z,49.67
2018-04-12T04:40:52.287Z,68.07
2018-04-12T04:43:19.781Z,84.70
2018-04-12T04:45:47.253Z,97.27
2018-04-12T04:48:14.793Z,97.00
2018-04-12T04:50:42.236Z,97.70
2018-04-12T04:53:10.492Z,100.17
2018-04-12T04:55:37.996Z,105.00
2018-04-12T04:58:05.492Z,102.47
2018-04-12T05:00:33.011Z,101.63
2018-04-12T05:03:00.481Z,102.30
2018-04-12T05:05:27.960Z,91.87
2018-04-12T05:07:55.432Z,106.43
2018-04-12T05:10:22.929Z,121.20
2018-04-12T05:12:50.457Z,114.33
2018-04-12T05:15:18.728Z,120.57
2018-04-12T05:17:46.969Z,112.73
2018-04-12T05:20:14.463Z,130.53
2018-04-12T05:22:42.700Z,121.43
2018-04-12T05:25:10.196Z,116.17
2018-04-12T05:27:38.436Z,123.10
2018-04-12T05:30:05.929Z,126.83
2018-04-12T05:32:34.169Z,136.77
2018-04-12T05:35:01.669Z,137.43
2018-04-12T05:37:29.910Z,132.50
2018-04-12T05:39:57.413Z,141.47
2018-04-12T05:42:24.977Z,133.30
2018-04-12T05:44:52.457Z,142.40
2018-04-12T05:47:19.944Z,142.87
2018-04-12T05:49:47.427Z,157.00
2018-04-12T05:52:15.684Z,141.57
2018-04-12T05:54:43.921Z,139.33
2018-04-12T05:57:11.419Z,162.70
2018-04-12T05:59:39.660Z,170.17
2018-04-12T06:02:07.159Z,162.37
2018-04-12T06:04:35.400Z,171.53
2018-04-12T06:07:02.893Z,160.97
2018-04-12T06:09:30.368Z,158.83
2018-04-12T06:11:57.861Z,156.27
2018-04-12T06:14:25.341Z,163.10
2018-04-12T06:16:52.842Z,167.10
2018-04-12T06:19:20.320Z,163.63
2018-04-12T06:21:47.819Z,163.67
2018-04-12T06:24:16.061Z,156.03
2018-04-12T06:26:43.548Z,159.83
2018-04-12T06:29:11.042Z,162.47
2018-04-12T06:31:38.524Z,160.17
2018-04-12T06:34:06.017Z,173.43
2018-04-12T06:36:34.264Z,166.80
2018-04-12T06:39:01.761Z,159.47
2018-04-12T06:41:29.232Z,158.43
2018-04-12T06:43:56.731Z,160.30
2018-04-12T06:46:24.201Z,163.23
2018-04-12T06:48:51.689Z,145.90
2018-04-12T06:51:19.165Z,161.73
2018-04-12T06:53:46.664Z,167.43
2018-04-12T06:56:14.141Z,152.60
2018-04-12T06:58:42.444Z,157.10
2018-04-12T07:01:09.920Z,153.20
2018-04-12T07:03:37.421Z,136.17
2018-04-12T07:06:05.667Z,163.23
2018-04-12T07:08:33.149Z,163.50
2018-04-12T07:11:01.417Z,149.70
2018-04-12T07:13:28.892Z,158.83
2018-04-12T07:15:57.149Z,171.13
2018-04-12T07:18:24.620Z,147.77
2018-04-12T07:20:52.873Z,135.37
2018-04-12T07:23:20.345Z,137.43
2018-04-12T07:25:56.577Z,158.20
2018-04-12T07:28:24.057Z,114.90
2018-04-12T07:30:52.326Z,128.37
2018-04-12T07:33:19.798Z,123.07
2018-04-12T07:35:48.277Z,113.90
2018-04-12T07:38:15.749Z,100.57
2018-04-12T07:40:43.234Z,109.23
2018-04-12T07:43:10.721Z,110.80
2018-04-12T07:45:38.192Z,107.10
2018-04-12T07:48:06.506Z,102.90
2018-04-12T07:50:33.982Z,103.20
2018-04-12T07:53:01.489Z,99.90
2018-04-12T07:55:29.759Z,91.60
2018-04-12T07:57:57.209Z,90.70
2018-04-12T08:00:24.694Z,96.80
2018-04-12T08:02:52.162Z,82.73
2018-04-12T08:05:19.658Z,87.30
2018-04-12T08:07:47.133Z,77.93
2018-04-12T08:10:15.393Z,86.60
2018-04-12T08:12:42.860Z,81.97
2018-04-12T08:15:10.336Z,80.10
2018-04-12T08:17:38.589Z,79.80
2018-04-12T08:20:06.064Z,79.17
2018-04-12T08:22:34.329Z,80.87
2018-04-12T08:25:02.572Z,75.87
2018-04-12T08:27:30.092Z,76.40
2018-04-12T08:29:57.569Z,65.17
2018-04-12T08:32:25.107Z,68.03
2018-04-12T08:34:52.597Z,68.87
2018-04-12T08:37:20.076Z,64.07
2018-04-12T08:39:47.564Z,66.83
2018-04-12T08:42:15.041Z,66.63
2018-04-12T08:44:42.565Z,67.53
2018-04-12T08:47:10.806Z,66.37
2018-04-12T08:49:38.284Z,66.87
2018-04-12T08:52:06.546Z,65.53
2018-04-12T08:54:34.023Z,60.50
2018-04-12T08:57:02.297Z,61.70
2018-04-12T08:59:30.540Z,57.17
2018-04-12T09:01:58.158Z,62.83
2018-04-12T09:04:25.639Z,59.47
2018-04-12T09:06:53.110Z,62.37
2018-04-12T09:09:20.604Z,57.53
2018-04-12T09:11:48.901Z,58.27
2018-04-12T09:14:16.393Z,61.17
2018-04-12T09:16:43.916Z,61.20
2018-04-12T09:19:11.410Z,58.67
2018-04-12T09:21:38.881Z,56.70
2018-04-12T09:24:06.365Z,48.37
2018-04-12T09:26:33.864Z,61.50
2018-04-12T09:29:01.345Z,55.60
2018-04-12T09:31:28.854Z,57.70
2018-04-12T09:33:56.327Z,52.50
2018-04-12T09:36:23.869Z,52.20
2018-04-12T09:38:51.340Z,54.30
2018-04-12T09:41:18.884Z,54.37
2018-04-12T09:43:46.386Z,50.30
2018-04-12T09:46:13.855Z,51.40
2018-04-12T09:48:42.120Z,53.50
2018-04-12T09:51:10.357Z,49.10
2018-04-12T09:53:37.898Z,50.37
2018-04-12T09:56:05.364Z,47.83
2018-04-12T09:58:32.840Z,53.80
2018-04-12T10:01:00.325Z,52.47
2018-04-12T10:03:27.796Z,51.57
2018-04-12T10:06:01.896Z,48.87
2018-04-12T10:08:30.137Z,48.43
2018-04-12T10:10:57.620Z,53.87
2018-04-12T10:13:25.092Z,57.03
2018-04-12T10:15:53.364Z,54.90
2018-04-12T10:18:21.601Z,55.03
2018-04-12T10:20:49.083Z,52.60
2018-04-12T10:23:16.569Z,51.17
2018-04-12T10:25:44.041Z,51.60
2018-04-12T10:28:11.525Z,48.43
2018-04-12T10:30:39.009Z,47.57
2018-04-12T10:33:06.497Z,46.40
2018-04-12T10:35:33.985Z,47.57
2018-04-12T10:38:01.464Z,46.13
2018-04-12T10:40:28.988Z,47.63
2018-04-12T10:42:56.465Z,46.30
2018-04-12T10:45:24.091Z,42.80
2018-04-12T10:47:51.577Z,47.37
2018-04-12T10:50:19.208Z,46.03
2018-04-12T10:52:46.706Z,44.40
2018-04-12T10:55:14.180Z,44.80
2018-04-12T10:57:42.458Z,40.33
2018-04-12T11:00:10.701Z,41.13
2018-04-12T11:02:38.228Z,38.00
2018-04-12T11:05:05.717Z,41.63
2018-04-12T11:07:33.197Z,42.30
2018-04-12T11:10:00.680Z,43.23
2018-04-12T11:12:28.561Z,41.63
2018-04-12T11:14:56.053Z,41.80
2018-04-12T11:17:23.524Z,42.70
2018-04-12T11:19:50.993Z,43.27
2018-04-12T11:22:19.254Z,43.70
2018-04-12T11:24:46.747Z,43.33
2018-04-12T11:27:14.993Z,41.57
2018-04-12T11:29:43.232Z,42.57
2018-04-12T11:32:10.717Z,44.30
2018-04-12T11:34:38.222Z,40.43
2018-04-12T11:37:05.687Z,41.73
2018-04-12T11:39:33.177Z,42.07
2018-04-12T11:42:00.644Z,40.77
2018-04-12T11:44:28.132Z,39.57
2018-04-12T11:46:55.622Z,38.83
2018-04-12T11:49:23.108Z,39.60
2018-04-12T11:51:50.587Z,40.10
2018-04-12T11:54:18.834Z,40.47
2018-04-12T11:56:46.336Z,41.07
2018-04-12T11:59:13.805Z,40.37
2018-04-12T12:01:41.298Z,36.70
2018-04-12T12:04:08.781Z,38.43
2018-04-12T12:06:37.041Z,37.93
2018-04-12T12:09:04.521Z,39.07
2018-04-12T12:11:32.001Z,38.80
2018-04-12T12:13:59.485Z,38.73
2018-04-12T12:16:26.961Z,38.47
2018-04-12T12:18:54.448Z,35.50
2018-04-12T12:21:21.923Z,38.67
2018-04-12T12:23:49.740Z,38.13
2018-04-12T12:26:17.163Z,37.90
2018-04-12T12:28:44.636Z,37.67
2018-04-12T12:31:12.123Z,38.13
2018-04-12T12:33:40.365Z,39.77
2018-04-12T12:36:07.865Z,35.00
2018-04-12T12:38:36.097Z,32.83
2018-04-12T12:41:03.589Z,37.17
2018-04-12T12:43:31.841Z,38.57
2018-04-12T12:45:59.342Z,36.33
2018-04-12T12:48:26.829Z,34.33
2018-04-12T12:50:54.301Z,38.47
2018-04-12T12:53:21.837Z,38.97
2018-04-12T12:55:49.317Z,35.90
2018-04-12T12:58:16.789Z,34.17
2018-04-12T13:00:45.036Z,36.33
2018-04-12T13:03:12.772Z,36.77
2018-04-12T13:05:40.276Z,35.43
2018-04-12T13:08:07.749Z,34.60
2018-04-12T13:10:35.985Z,36.43
2018-04-12T13:13:03.492Z,34.63
2018-04-12T13:15:30.985Z,35.20
2018-04-12T13:17:59.002Z,31.60
2018-04-12T13:20:27.241Z,33.57
2018-04-12T13:22:54.709Z,36.13
2018-04-12T13:25:22.217Z,33.37
2018-04-12T13:27:49.690Z,35.87
2018-04-12T13:30:17.196Z,32.30
2018-04-12T13:32:44.669Z,34.57
2018-04-12T13:35:12.141Z,34.50
2018-04-12T13:37:39.633Z,31.37
2018-04-12T13:40:07.102Z,31.37
2018-04-12T13:42:34.597Z,34.37
2018-04-12T13:45:02.832Z,32.60
2018-04-12T13:47:30.309Z,33.37
2018-04-12T13:49:58.562Z,32.43
2018-04-12T13:52:26.030Z,33.50
2018-04-12T13:54:53.602Z,34.27
2018-04-12T13:57:21.082Z,32.60
2018-04-12T13:59:48.553Z,32.73
2018-04-12T14:02:16.044Z,32.57
2018-04-12T14:04:43.586Z,31.33
2018-04-12T14:07:11.787Z,35.53
2018-04-12T14:09:39.256Z,34.63
2018-04-12T14:12:07.489Z,34.10
2018-04-12T14:14:34.977Z,35.50
2018-04-12T14:17:03.216Z,33.43
2018-04-12T14:19:30.700Z,34.70
2018-04-12T14:21:58.172Z,34.40
2018-04-12T14:24:26.405Z,33.03
2018-04-12T14:26:53.908Z,35.83
2018-04-12T14:29:21.488Z,33.93
2018-04-12T14:31:49.308Z,34.53
2018-04-12T14:34:16.809Z,35.77
2018-04-12T14:36:44.288Z,35.87
2018-04-12T14:39:11.773Z,33.50
2018-04-12T14:41:39.244Z,34.97
2018-04-12T14:44:07.504Z,33.53
2018-04-12T14:46:34.972Z,33.90
2018-04-12T14:49:03.212Z,33.50
2018-04-12T14:51:30.701Z,33.40
2018-04-12T14:53:58.941Z,33.10
2018-04-12T14:56:26.445Z,32.97
2018-04-12T14:58:54.689Z,29.83
2018-04-12T15:01:22.161Z,31.87
2018-04-12T15:03:50.413Z,32.63
2018-04-12T15:06:17.926Z,32.20
2018-04-12T15:08:46.157Z,30.03
2018-04-12T15:11:13.640Z,31.67
2018-04-12T15:13:41.114Z,31.63
2018-04-12T15:16:08.672Z,31.17
2018-04-12T15:18:36.141Z,31.23
2018-04-12T15:21:03.640Z,28.80
2018-04-12T15:23:31.108Z,30.20
2018-04-12T15:25:59.349Z,29.23
2018-04-12T15:28:26.845Z,31.27
2018-04-12T15:30:55.081Z,29.50
2018-04-12T15:33:24.084Z,29.20
2018-04-12T15:35:51.553Z,29.90
2018-04-12T15:38:19.820Z,30.87
2018-04-12T15:40:47.304Z,30.37
2018-04-12T15:43:14.788Z,30.57
2018-04-12T15:45:42.279Z,30.00
2018-04-12T15:48:09.745Z,30.33
2018-04-12T15:50:37.238Z,29.27
2018-04-12T15:53:04.805Z,27.20
2018-04-12T15:55:32.292Z,28.70
2018-04-12T15:57:59.785Z,28.60
2018-04-12T16:00:28.017Z,27.67
2018-04-12T16:02:55.516Z,27.63
2018-04-12T16:05:23.756Z,29.10
2018-04-12T16:07:51.277Z,27.67
2018-04-12T16:10:18.765Z,28.17
2018-04-12T16:12:46.292Z,27.93
2018-04-12T16:15:13.800Z,26.87
2018-04-12T16:17:41.304Z,25.10
2018-04-12T16:20:08.777Z,23.37
2018-04-12T16:22:36.322Z,19.80
2018-04-12T16:25:03.788Z,18.80
2018-04-12T16:27:31.288Z,16.63
2018-04-12T16:29:59.528Z,15.67
2018-04-12T16:32:27.066Z,14.97
2018-04-12T16:34:54.565Z,14.77
2018-04-12T16:37:22.032Z,14.47
2018-04-12T16:39:49.534Z,14.83
2018-04-12T16:42:17.010Z,15.17
2018-04-12T16:44:44.511Z,14.97
2018-04-12T16:47:12.772Z,15.17
2018-04-12T16:49:40.240Z,14.47
2018-04-12T16:52:08.753Z,14.27
2018-04-12T16:54:36.225Z,14.30
2018-04-12T16:57:03.697Z,14.60
2018-04-12T16:59:31.188Z,16.00
2018-04-12T17:01:58.668Z,15.47
2018-04-12T17:04:26.152Z,16.27
2018-04-12T17:06:53.647Z,16.93
2018-04-12T17:09:21.125Z,17.17
2018-04-12T17:11:49.385Z,15.03
2018-04-12T17:14:16.853Z,15.47
2018-04-12T17:16:45.107Z,15.20
2018-04-12T17:19:12.662Z,14.60
2018-04-12T17:21:40.100Z,14.43
2018-04-12T17:24:07.584Z,14.80
2018-04-12T17:26:35.928Z,14.47
2018-04-12T17:29:03.394Z,14.67
2018-04-12T17:31:30.885Z,15.27
2018-04-12T17:33:59.125Z,14.87
2018-04-12T17:36:26.605Z,14.93
2018-04-12T17:38:55.023Z,14.37
2018-04-12T17:41:22.502Z,14.80
2018-04-12T17:43:49.994Z,15.33
2018-04-12T17:49:10.200Z,15.37
2018-04-12T17:51:38.440Z,15.20
2018-04-12T17:54:05.921Z,14.60
2018-04-12T17:56:34.409Z,15.47
2018-04-12T17:59:02.656Z,15.37
2018-04-12T18:01:30.452Z,15.27
2018-04-12T18:03:58.693Z,16.10
2018-04-12T18:06:26.165Z,16.30
2018-04-12T18:08:53.653Z,16.03
2018-04-12T18:11:21.884Z,15.43
2018-04-12T18:13:49.676Z,15.13
2018-04-12T18:16:17.912Z,15.70
2018-04-12T18:18:45.393Z,16.43
2018-04-12T18:21:12.878Z,16.27
2018-04-12T18:23:41.113Z,16.30
2018-04-12T18:26:08.607Z,15.97
2018-04-12T18:28:36.844Z,15.97
2018-04-12T18:31:05.093Z,14.53
2018-04-12T18:33:32.590Z,15.00
2018-04-12T18:36:00.085Z,14.57
2018-04-12T18:38:27.580Z,13.73
2018-04-12T18:40:55.049Z,13.60
2018-04-12T18:43:22.525Z,13.00
2018-04-12T18:45:50.794Z,13.60
2018-04-12T18:48:18.280Z,13.63
2018-04-12T18:50:45.779Z,14.23
2018-04-12T18:53:13.254Z,13.93
2018-04-12T18:55:41.524Z,14.27
2018-04-12T18:58:09.016Z,13.33
2018-04-12T19:00:36.502Z,13.33
2018-04-12T19:03:03.999Z,13.97
2018-04-12T19:05:31.497Z,13.53
2018-04-12T19:07:58.965Z,12.97
2018-04-12T19:10:26.469Z,13.90
2018-04-12T19:12:54.721Z,14.27
2018-04-12T19:15:22.214Z,13.97
2018-04-12T19:17:50.453Z,14.63
2018-04-12T19:20:17.929Z,15.23
2018-04-12T19:22:46.200Z,14.50
2018-04-12T19:25:13.675Z,14.53
2018-04-12T19:27:41.937Z,14.43
2018-04-12T19:30:09.405Z,14.83
2018-04-12T19:32:37.697Z,14.80
2018-04-12T19:35:05.153Z,14.30
2018-04-12T19:37:32.629Z,15.30
2018-04-12T19:40:00.182Z,13.83
2018-04-12T19:42:27.657Z,14.03
2018-04-12T19:44:55.136Z,15.27
2018-04-12T19:47:22.624Z,14.93
2018-04-12T19:49:50.860Z,15.73
2018-04-12T19:52:18.349Z,15.67
2018-04-12T19:54:46.592Z,16.77
2018-04-12T20:00:05.498Z,15.20
2018-04-12T20:05:25.189Z,16.30
2018-04-12T20:07:53.433Z,17.97
2018-04-12T20:10:20.917Z,17.03
2018-04-12T20:12:49.710Z,16.73
2018-04-12T20:15:17.941Z,17.03
2018-04-12T20:17:45.432Z,17.87
2018-04-12T20:20:13.677Z,17.43
2018-04-12T20:22:41.211Z,17.90
2018-04-12T20:25:09.433Z,17.33
2018-04-12T20:27:37.677Z,17.57
2018-04-12T20:30:05.189Z,17.40
2018-04-12T20:32:32.665Z,16.80
2018-04-12T20:35:00.140Z,17.00
2018-04-12T20:37:27.628Z,18.30
2018-04-12T20:39:55.103Z,18.33
2018-04-12T20:42:22.620Z,19.07
2018-04-12T20:44:50.089Z,19.80
2018-04-12T20:47:17.566Z,19.30
2018-04-12T20:49:45.070Z,19.10
2018-04-12T20:52:12.544Z,19.50
2018-04-12T20:57:31.549Z,20.63
2018-04-12T20:59:59.789Z,20.60
2018-04-12T21:02:27.268Z,19.83
2018-04-12T21:04:54.736Z,20.43
2018-04-12T21:07:22.996Z,21.70
2018-04-12T21:09:50.464Z,21.73
2018-04-12T21:12:18.714Z,21.30
2018-04-12T21:14:46.187Z,20.87
2018-04-12T21:17:13.689Z,22.43
2018-04-12T21:19:41.169Z,22.27
2018-04-12T21:22:08.973Z,23.80
2018-04-12T21:24:37.209Z,25.40
2018-04-12T21:27:04.737Z,24.80
2018-04-12T21:29:32.220Z,25.67
2018-04-12T21:31:59.712Z,25.07
2018-04-12T21:34:27.198Z,26.57
2018-04-12T21:36:54.672Z,24.73
2018-04-12T21:39:22.157Z,24.83
2018-04-12T21:41:49.625Z,24.37
2018-04-12T21:44:17.105Z,25.43
2018-04-12T21:46:45.722Z,25.83
2018-04-12T21:49:13.216Z,25.83
2018-04-12T21:51:40.680Z,26.87
2018-04-12T21:54:08.928Z,27.40
2018-04-12T21:56:36.463Z,25.90
2018-04-12T21:59:03.929Z,26.97
2018-04-12T22:01:31.751Z,26.07
2018-04-12T22:06:52.993Z,26.00
2018-04-12T22:09:20.471Z,24.53
2018-04-12T22:11:47.959Z,27.33
2018-04-12T22:14:15.480Z,26.90
2018-04-12T22:16:42.955Z,25.47
2018-04-12T22:19:10.429Z,26.00
2018-04-12T22:21:37.913Z,26.60
2018-04-12T22:24:06.140Z,26.90
2018-04-12T22:26:33.681Z,28.33
2018-04-12T22:29:01.146Z,26.60
2018-04-12T22:31:28.612Z,25.73
2018-04-12T22:33:56.093Z,26.50
2018-04-12T22:36:23.568Z,26.80
2018-04-12T22:38:51.824Z,23.90
2018-04-12T22:41:19.296Z,25.27
2018-04-12T22:43:47.546Z,23.40
2018-04-12T22:46:15.046Z,23.70
2018-04-12T22:48:42.508Z,23.13
2018-04-12T22:51:09.974Z,22.87
2018-04-12T22:53:37.440Z,22.23
2018-04-12T22:56:04.924Z,21.40
2018-04-12T22:58:32.447Z,20.97
2018-04-12T23:00:59.935Z,19.67
2018-04-12T23:03:27.406Z,19.17
2018-04-12T23:05:54.888Z,19.97
2018-04-12T23:08:23.120Z,19.03
2018-04-12T23:10:50.921Z,18.10
2018-04-12T23:13:19.149Z,17.57
2018-04-12T23:15:46.684Z,17.37
2018-04-12T23:18:14.172Z,16.53
2018-04-12T23:20:41.693Z,17.13
2018-04-12T23:23:09.176Z,17.20
2018-04-12T23:25:36.658Z,15.90
2018-04-12T23:28:04.148Z,16.57
2018-04-12T23:30:31.723Z,17.13
2018-04-12T23:32:59.217Z,16.83
2018-04-12T23:35:26.681Z,16.73
2018-04-12T23:37:54.164Z,16.93
2018-04-12T23:40:22.413Z,15.93
2018-04-12T23:42:49.884Z,15.40
2018-04-12T23:45:17.364Z,15.13
2018-04-12T23:47:44.833Z,15.83
2018-04-12T23:50:12.319Z,16.03
2018-04-12T23:52:39.785Z,17.47
2018-04-12T23:55:07.288Z,17.63
2018-04-12T23:57:35.580Z,18.27
